Time;durP1;ratioP1;P1;durP2;ratioP2;P2;SDS_P1;SDS_P2;PMS_P1;PMS_P2;Temp;Humidity;BMP_temperature;BMP_pressure;BME280_temperature;BME280_humidity;BME280_pressure;Samples;Min_cycle;Max_cycle;Signal;HPM_P1;HPM_P2
2022/12/12 00:01:28;;;;;;;83.93;27.83;;;-1.60;99.90;;;;;;5099845;28;20024;-68
2022/12/12 00:03:54;;;;;;;70.70;28.73;;;-1.70;99.90;;;;;;5101562;28;20030;-68
2022/12/12 00:06:20;;;;;;;88.85;27.90;;;-1.70;99.90;;;;;;5099018;28;20040;-67
2022/12/12 00:08:46;;;;;;;79.32;28.63;;;-1.80;99.90;;;;;;5100973;28;20055;-68
2022/12/12 00:11:12;;;;;;;80.78;29.67;;;-1.80;99.90;;;;;;5101102;28;20032;-68
2022/12/12 00:13:39;;;;;;;76.93;27.48;;;-1.80;99.90;;;;;;5102182;28;20020;-68
2022/12/12 00:16:07;;;;;;;81.97;28.02;;;-1.90;99.90;;;;;;5101916;28;20024;-68
2022/12/12 00:18:35;;;;;;;84.18;28.58;;;-1.90;99.90;;;;;;5102281;28;20031;-67
2022/12/12 00:21:03;;;;;;;74.75;27.25;;;-1.90;99.90;;;;;;5102433;28;20024;-69
2022/12/12 00:23:29;;;;;;;80.57;28.92;;;-1.90;99.90;;;;;;5101703;28;20051;-68
2022/12/12 00:26:04;;;;;;;74.88;26.73;;;-1.90;99.90;;;;;;5102450;28;20039;-67
2022/12/12 00:28:30;;;;;;;67.30;25.15;;;-2.00;99.90;;;;;;5101368;28;20055;-68
2022/12/12 00:30:56;;;;;;;73.40;25.83;;;-2.10;99.90;;;;;;5100930;28;20081;-68
2022/12/12 00:33:21;;;;;;;75.40;26.38;;;-2.10;99.90;;;;;;5101735;28;20020;-68
2022/12/12 00:35:52;;;;;;;70.93;25.95;;;-2.10;99.90;;;;;;5102739;28;20032;-68
2022/12/12 00:38:19;;;;;;;76.20;27.35;;;-2.10;99.90;;;;;;5101846;28;20035;-68
2022/12/12 00:40:45;;;;;;;71.07;25.70;;;-2.20;99.90;;;;;;5099331;28;20044;-67
2022/12/12 00:43:11;;;;;;;71.30;25.52;;;-2.20;99.90;;;;;;5102448;28;20024;-67
2022/12/12 00:45:37;;;;;;;76.25;26.25;;;-2.20;99.90;;;;;;5101294;28;20081;-68
2022/12/12 00:48:04;;;;;;;80.82;26.55;;;-2.20;99.90;;;;;;5102435;28;20129;-68
2022/12/12 00:50:30;;;;;;;79.10;26.67;;;-2.30;99.90;;;;;;5100523;28;20062;-67
2022/12/12 00:52:56;;;;;;;78.93;26.45;;;-2.30;99.90;;;;;;5102097;28;20024;-68
2022/12/12 00:55:25;;;;;;;80.13;26.95;;;-2.20;99.90;;;;;;5101722;28;20464;-69
2022/12/12 00:57:52;;;;;;;75.20;26.92;;;-2.30;99.90;;;;;;5102173;28;20028;-69
2022/12/12 01:00:20;;;;;;;71.15;25.90;;;-2.30;99.90;;;;;;5100768;28;20024;-68
2022/12/12 01:02:46;;;;;;;74.22;25.50;;;-2.30;99.90;;;;;;5101303;28;20020;-69
2022/12/12 01:05:12;;;;;;;76.80;26.25;;;-2.30;99.90;;;;;;5102263;28;20085;-69
2022/12/12 01:07:38;;;;;;;77.43;26.67;;;-2.30;99.90;;;;;;5102146;28;20020;-68
2022/12/12 01:10:04;;;;;;;71.40;26.38;;;-2.30;99.90;;;;;;5101659;28;20024;-68
2022/12/12 01:12:30;;;;;;;82.88;28.30;;;-2.30;99.90;;;;;;5101574;28;20028;-68
2022/12/12 01:14:56;;;;;;;80.07;28.45;;;-2.30;99.90;;;;;;5101709;28;20120;-69
2022/12/12 01:17:22;;;;;;;78.85;27.20;;;-2.30;99.90;;;;;;5102004;28;20058;-68
2022/12/12 01:19:48;;;;;;;83.50;28.52;;;-2.30;99.90;;;;;;5101996;28;20028;-69
2022/12/12 01:22:13;;;;;;;78.60;27.75;;;-2.30;99.90;;;;;;5101239;28;20020;-68
2022/12/12 01:24:39;;;;;;;83.82;27.92;;;-2.30;99.90;;;;;;5101126;28;20636;-67
2022/12/12 01:27:05;;;;;;;77.38;27.00;;;-2.30;99.90;;;;;;5101506;28;20042;-68
2022/12/12 01:29:32;;;;;;;72.18;27.15;;;-2.30;99.90;;;;;;5101828;28;20028;-68
2022/12/12 01:31:58;;;;;;;78.43;27.98;;;-2.30;99.90;;;;;;5101835;28;20047;-67
2022/12/12 01:34:24;;;;;;;83.95;29.60;;;-2.20;99.90;;;;;;5101475;28;20035;-69
2022/12/12 01:36:50;;;;;;;82.68;29.10;;;-2.30;99.90;;;;;;5101241;28;20075;-67
2022/12/12 01:39:15;;;;;;;75.80;27.50;;;-2.30;99.90;;;;;;5101838;28;20020;-69
2022/12/12 01:41:43;;;;;;;81.07;28.48;;;-2.30;99.90;;;;;;5101325;28;20116;-68
2022/12/12 01:44:41;;;;;;;73.18;26.63;;;-2.30;99.90;;;;;;5101316;28;20009;-67
2022/12/12 01:47:07;;;;;;;76.93;28.02;;;-2.30;99.90;;;;;;5101352;28;20038;-68
2022/12/12 01:49:33;;;;;;;83.47;28.60;;;-2.30;99.90;;;;;;5101085;28;20112;-67
2022/12/12 01:52:04;;;;;;;79.45;27.67;;;-2.30;99.90;;;;;;5100577;28;20020;-66
2022/12/12 01:54:33;;;;;;;80.25;27.33;;;-2.40;99.90;;;;;;5101321;28;20028;-68
2022/12/12 01:57:04;;;;;;;76.03;27.25;;;-2.40;99.90;;;;;;5101156;28;20048;-68
2022/12/12 01:59:32;;;;;;;78.20;27.17;;;-2.40;99.90;;;;;;5101303;28;20023;-70
2022/12/12 02:01:58;;;;;;;70.80;27.30;;;-2.40;99.90;;;;;;5100801;28;20040;-68
2022/12/12 02:04:26;;;;;;;75.65;26.85;;;-2.40;99.90;;;;;;5100531;28;20016;-69
2022/12/12 02:06:54;;;;;;;69.93;26.65;;;-2.40;99.90;;;;;;5100023;28;20044;-69
2022/12/12 02:09:21;;;;;;;85.72;28.10;;;-2.40;99.90;;;;;;5099454;28;20043;-69
2022/12/12 02:11:49;;;;;;;79.75;26.15;;;-2.40;99.90;;;;;;5100860;28;20111;-69
2022/12/12 02:14:35;;;;;;;70.57;25.70;;;-2.40;99.90;;;;;;5098688;28;20036;-69
2022/12/12 02:17:22;;;;;;;69.55;25.17;;;-2.40;99.90;;;;;;5104371;28;20085;-69
2022/12/12 02:20:21;;;;;;;79.00;26.67;;;-2.40;99.90;;;;;;5103863;28;20028;-69
2022/12/12 02:23:17;;;;;;;86.32;27.30;;;-2.50;99.90;;;;;;5102999;28;20024;-69
2022/12/12 02:25:49;;;;;;;81.78;26.55;;;-2.50;99.90;;;;;;5104644;28;20043;-70
2022/12/12 02:28:48;;;;;;;71.45;26.13;;;-2.50;99.90;;;;;;5103639;28;20028;-70
2022/12/12 02:31:37;;;;;;;72.47;28.13;;;-2.50;99.90;;;;;;5104211;28;20088;-69
2022/12/12 02:34:27;;;;;;;74.70;28.63;;;-2.60;99.90;;;;;;5102016;28;20042;-69
2022/12/12 02:37:03;;;;;;;80.85;28.58;;;-2.60;99.90;;;;;;5103210;28;20024;-68
2022/12/12 02:40:03;;;;;;;79.40;29.00;;;-2.60;99.90;;;;;;5104015;28;20016;-68
2022/12/12 02:42:43;;;;;;;73.78;27.65;;;-2.60;99.90;;;;;;5104132;28;20050;-68
2022/12/12 02:45:23;;;;;;;84.75;27.23;;;-2.60;99.90;;;;;;5102836;28;20048;-68
2022/12/12 02:47:59;;;;;;;75.65;28.40;;;-2.60;99.90;;;;;;5102082;28;20087;-69
2022/12/12 02:50:29;;;;;;;76.10;28.10;;;-2.70;99.90;;;;;;5102211;28;20059;-68
2022/12/12 02:52:54;;;;;;;87.18;29.77;;;-2.70;99.90;;;;;;5103821;28;20051;-68
2022/12/12 02:55:20;;;;;;;76.47;29.63;;;-2.70;99.90;;;;;;5103805;28;20722;-70
2022/12/12 02:57:49;;;;;;;78.88;28.42;;;-2.70;99.90;;;;;;5104132;28;20078;-70
2022/12/12 03:00:17;;;;;;;82.40;29.67;;;-2.70;99.90;;;;;;5104086;28;20020;-68
2022/12/12 03:09:21;;;;;;;81.95;28.65;;;-2.70;99.90;;;;;;5102551;28;20078;-68
2022/12/12 03:12:15;;;;;;;88.00;30.42;;;-2.70;99.90;;;;;;5103691;28;20062;-68
2022/12/12 03:14:46;;;;;;;87.05;29.88;;;-2.80;99.90;;;;;;5103551;28;20114;-69
2022/12/12 03:17:18;;;;;;;85.18;28.65;;;-2.80;99.90;;;;;;5103353;28;20284;-69
2022/12/12 03:19:59;;;;;;;83.30;29.08;;;-2.80;99.90;;;;;;5101857;28;20024;-69
2022/12/12 03:22:47;;;;;;;100.22;35.25;;;-2.80;99.90;;;;;;5103070;28;20056;-69
2022/12/12 03:25:27;;;;;;;91.32;32.70;;;-2.80;99.90;;;;;;5102521;28;20047;-70
2022/12/12 03:28:05;;;;;;;80.13;29.60;;;-2.90;99.90;;;;;;5103121;28;20118;-69
2022/12/12 03:30:38;;;;;;;76.15;27.27;;;-2.90;99.90;;;;;;5102506;28;20050;-71
2022/12/12 03:33:16;;;;;;;76.32;27.48;;;-2.90;99.90;;;;;;5101554;28;20039;-68
2022/12/12 03:35:47;;;;;;;85.18;29.02;;;-2.90;99.90;;;;;;5102675;28;20585;-69
2022/12/12 03:38:18;;;;;;;84.72;29.38;;;-2.90;99.90;;;;;;5102776;28;20028;-70
2022/12/12 03:40:51;;;;;;;84.57;29.33;;;-2.90;99.90;;;;;;5102921;28;20032;-71
2022/12/12 03:43:28;;;;;;;86.45;29.17;;;-2.90;99.90;;;;;;5103022;28;20032;-69
2022/12/12 03:46:27;;;;;;;88.90;30.10;;;-2.90;99.90;;;;;;5101987;28;20043;-69
2022/12/12 03:49:01;;;;;;;79.65;28.33;;;-2.90;99.90;;;;;;5102950;28;20547;-69
2022/12/12 03:51:29;;;;;;;93.40;30.60;;;-2.90;99.90;;;;;;5102553;28;20020;-69
2022/12/12 03:54:05;;;;;;;88.57;30.90;;;-2.90;99.90;;;;;;5102668;28;20027;-69
2022/12/12 03:56:39;;;;;;;84.53;29.60;;;-2.90;99.90;;;;;;5102806;28;20075;-70
2022/12/12 03:59:16;;;;;;;98.65;31.35;;;-2.90;99.90;;;;;;5102929;28;20024;-69
2022/12/12 04:02:02;;;;;;;85.72;30.95;;;-2.80;99.90;;;;;;5102251;28;20074;-70
2022/12/12 04:04:40;;;;;;;84.38;30.63;;;-2.90;99.90;;;;;;5102616;28;20031;-70
2022/12/12 04:07:20;;;;;;;93.15;32.00;;;-2.90;99.90;;;;;;5101708;28;20924;-71
2022/12/12 04:15:20;;;;;;;87.40;29.75;;;-3.00;99.90;;;;;;5102143;28;20037;-70
2022/12/12 04:18:34;;;;;;;83.85;30.48;;;-3.00;99.90;;;;;;5102273;28;20032;-69
2022/12/12 04:23:59;;;;;;;86.55;27.90;;;-3.10;99.90;;;;;;5101764;28;20079;-69
2022/12/12 04:26:39;;;;;;;84.70;29.88;;;-3.00;99.90;;;;;;5102186;28;20032;-69
2022/12/12 04:29:28;;;;;;;84.95;29.00;;;-3.00;99.90;;;;;;5102061;28;20085;-68
2022/12/12 04:32:13;;;;;;;96.53;30.67;;;-3.00;99.90;;;;;;5102178;28;20020;-69
2022/12/12 04:34:51;;;;;;;82.05;30.15;;;-3.00;99.90;;;;;;5101808;28;20036;-69
2022/12/12 04:37:22;;;;;;;89.88;31.42;;;-3.00;99.90;;;;;;5100044;28;20122;-70
2022/12/12 04:39:51;;;;;;;87.13;30.13;;;-3.00;99.90;;;;;;5101596;28;20020;-70
2022/12/12 04:42:21;;;;;;;87.15;31.17;;;-3.00;99.90;;;;;;5101587;28;20026;-69
2022/12/12 04:44:50;;;;;;;89.90;31.48;;;-3.00;99.90;;;;;;5102177;28;20028;-68
2022/12/12 04:47:17;;;;;;;99.70;30.90;;;-3.00;99.90;;;;;;5101803;28;20129;-68
2022/12/12 04:49:45;;;;;;;86.63;29.33;;;-3.00;99.90;;;;;;5101284;28;20032;-70
2022/12/12 04:52:14;;;;;;;96.55;31.73;;;-3.00;99.90;;;;;;5101224;28;20024;-69
2022/12/12 04:54:58;;;;;;;85.78;30.73;;;-3.10;99.90;;;;;;5101293;28;20337;-70
2022/12/12 04:57:31;;;;;;;78.78;30.13;;;-3.10;99.90;;;;;;5100934;28;20028;-70
2022/12/12 04:59:56;;;;;;;74.95;28.15;;;-3.10;99.90;;;;;;5102039;28;20024;-69
2022/12/12 05:02:33;;;;;;;70.55;26.05;;;-3.10;99.90;;;;;;5100841;28;20051;-70
2022/12/12 05:05:06;;;;;;;74.85;25.40;;;-3.10;99.90;;;;;;5100506;28;20038;-70
2022/12/12 05:07:37;;;;;;;68.73;25.87;;;-3.20;99.90;;;;;;5100244;28;20024;-70
2022/12/12 05:10:07;;;;;;;66.40;23.52;;;-3.20;99.90;;;;;;5100529;28;20342;-69
2022/12/12 05:12:48;;;;;;;60.88;22.30;;;-3.30;99.90;;;;;;5101431;28;20023;-70
2022/12/12 05:15:17;;;;;;;59.55;21.13;;;-3.40;99.90;;;;;;5101201;28;20024;-70
2022/12/12 05:17:46;;;;;;;56.65;22.15;;;-3.50;99.90;;;;;;5100997;28;20039;-70
2022/12/12 05:20:13;;;;;;;60.55;21.95;;;-3.60;99.90;;;;;;5100762;28;20072;-70
2022/12/12 05:22:38;;;;;;;69.47;23.38;;;-2.30;99.90;;;;;;5100809;28;20024;-69
2022/12/12 05:25:04;;;;;;;65.20;22.52;;;-1.50;99.90;;;;;;5100410;28;20138;-71
2022/12/12 05:27:30;;;;;;;59.22;22.73;;;-1.20;99.90;;;;;;5101241;28;20054;-69
2022/12/12 05:29:56;;;;;;;60.08;23.23;;;-1.50;99.90;;;;;;5101333;28;20024;-69
2022/12/12 05:32:21;;;;;;;64.32;22.67;;;-2.00;99.90;;;;;;5100498;28;20578;-69
2022/12/12 05:34:47;;;;;;;67.28;24.20;;;-2.40;99.90;;;;;;5101154;28;20031;-69
2022/12/12 05:37:13;;;;;;;58.78;22.60;;;-2.80;99.90;;;;;;5099529;28;20024;-69
2022/12/12 05:39:38;;;;;;;72.43;23.13;;;-3.00;99.90;;;;;;5099789;28;20020;-69
2022/12/12 05:42:04;;;;;;;60.28;24.17;;;-3.30;99.90;;;;;;5099923;28;20032;-71
2022/12/12 05:44:30;;;;;;;67.30;24.13;;;-3.40;99.90;;;;;;5100709;28;20035;-70
2022/12/12 05:46:55;;;;;;;69.30;23.80;;;-3.60;99.90;;;;;;5100603;28;20028;-68
2022/12/12 05:49:21;;;;;;;60.92;21.85;;;-3.70;99.90;;;;;;5100167;28;20024;-71
2022/12/12 05:51:46;;;;;;;75.38;25.17;;;-3.70;99.90;;;;;;5100837;28;20024;-70
2022/12/12 05:54:12;;;;;;;68.75;24.08;;;-3.80;99.90;;;;;;5100904;28;20028;-71
2022/12/12 05:56:38;;;;;;;61.85;22.58;;;-3.80;99.90;;;;;;5100276;28;20032;-69
2022/12/12 05:59:04;;;;;;;69.75;24.40;;;-3.90;99.90;;;;;;5100830;28;20024;-70
2022/12/12 06:01:30;;;;;;;85.20;30.70;;;-3.90;99.90;;;;;;5100526;28;20645;-70
2022/12/12 06:03:56;;;;;;;89.10;30.17;;;-3.90;99.90;;;;;;5100206;28;20021;-70
2022/12/12 06:06:21;;;;;;;84.68;29.90;;;-3.90;99.90;;;;;;5100104;28;20547;-72
2022/12/12 06:08:47;;;;;;;85.13;29.02;;;-3.90;99.90;;;;;;5100938;28;20027;-71
2022/12/12 06:11:13;;;;;;;80.38;28.67;;;-3.90;99.90;;;;;;5101176;28;20381;-69
2022/12/12 06:13:38;;;;;;;87.45;30.08;;;-3.90;99.90;;;;;;5099965;28;20087;-69
2022/12/12 06:16:15;;;;;;;88.72;29.95;;;-3.90;99.90;;;;;;5099908;28;20047;-70
2022/12/12 06:18:41;;;;;;;92.60;29.88;;;-3.90;99.90;;;;;;5100378;28;20040;-72
2022/12/12 06:21:09;;;;;;;92.65;29.90;;;-3.90;99.90;;;;;;5098991;28;20036;-71
2022/12/12 06:23:39;;;;;;;74.95;28.02;;;-3.90;99.90;;;;;;5100193;28;20138;-73
2022/12/12 06:26:07;;;;;;;87.93;28.58;;;-3.90;99.90;;;;;;5098422;28;20028;-72
2022/12/12 06:28:34;;;;;;;78.20;27.08;;;-3.80;99.90;;;;;;5099806;28;20028;-72
2022/12/12 06:30:59;;;;;;;73.18;27.33;;;-3.90;99.90;;;;;;5100043;28;20042;-71
2022/12/12 06:33:26;;;;;;;76.97;26.33;;;-3.80;99.90;;;;;;5098068;28;20028;-72
2022/12/12 06:36:07;;;;;;;80.20;26.08;;;-3.70;99.90;;;;;;5100122;28;20150;-71
2022/12/12 06:38:33;;;;;;;84.85;27.15;;;-3.80;99.90;;;;;;5099998;28;20032;-72
2022/12/12 06:40:59;;;;;;;79.47;28.98;;;-3.80;99.90;;;;;;5100611;28;20020;-71
2022/12/12 06:43:25;;;;;;;80.03;29.60;;;-3.90;99.90;;;;;;5099419;28;20028;-70
2022/12/12 06:45:51;;;;;;;91.38;28.23;;;-3.80;99.90;;;;;;5093836;28;20058;-73
2022/12/12 06:48:17;;;;;;;93.90;30.85;;;-3.70;99.90;;;;;;5098129;28;20028;-72
2022/12/12 06:50:44;;;;;;;80.05;27.48;;;-3.70;99.90;;;;;;5099638;28;20061;-71
2022/12/12 06:53:13;;;;;;;86.32;29.20;;;-3.70;99.90;;;;;;5099696;28;20016;-71
2022/12/12 06:55:42;;;;;;;109.82;31.58;;;-3.80;99.90;;;;;;5098226;28;20046;-72
2022/12/12 06:58:09;;;;;;;93.97;29.58;;;-3.80;99.90;;;;;;5099054;28;20024;-72
2022/12/12 07:00:35;;;;;;;96.00;29.92;;;-3.90;99.90;;;;;;5099988;28;20031;-72
2022/12/12 07:03:04;;;;;;;103.80;33.13;;;-4.00;99.90;;;;;;5098711;28;20024;-72
2022/12/12 07:05:29;;;;;;;134.63;33.28;;;-4.00;99.90;;;;;;5103903;28;20035;-72
2022/12/12 07:07:55;;;;;;;122.63;33.75;;;-4.10;99.90;;;;;;5103344;28;20032;-72
2022/12/12 07:10:21;;;;;;;129.40;34.22;;;-4.10;99.90;;;;;;5102729;28;20036;-74
2022/12/12 07:12:46;;;;;;;116.70;32.10;;;-4.10;99.90;;;;;;5102899;28;20028;-72
2022/12/12 07:15:12;;;;;;;93.78;33.15;;;-4.10;99.90;;;;;;5103819;28;20085;-72
2022/12/12 07:17:37;;;;;;;108.95;34.17;;;-4.10;99.90;;;;;;5102965;28;20079;-73
2022/12/12 07:20:04;;;;;;;100.50;31.33;;;-4.20;99.90;;;;;;5102628;28;20527;-72
2022/12/12 07:22:29;;;;;;;105.00;34.08;;;-4.20;99.90;;;;;;5115939;28;20039;-72
2022/12/12 07:24:55;;;;;;;109.88;36.15;;;-4.10;99.90;;;;;;5096563;28;20044;-72
2022/12/12 07:27:20;;;;;;;565.72;38.00;;;-4.10;99.90;;;;;;5103313;28;20035;-73
2022/12/12 07:29:46;;;;;;;120.95;31.20;;;-4.10;99.90;;;;;;5103803;28;20031;-73
2022/12/12 07:32:12;;;;;;;109.63;33.40;;;-4.10;99.90;;;;;;5103225;28;20315;-73
2022/12/12 07:34:37;;;;;;;155.68;35.38;;;-4.10;99.90;;;;;;5103024;28;20571;-72
2022/12/12 07:37:03;;;;;;;250.15;37.28;;;-4.10;99.90;;;;;;5100821;28;20035;-73
2022/12/12 07:39:33;;;;;;;339.80;36.70;;;-4.10;99.90;;;;;;5101322;28;20053;-73
2022/12/12 07:41:59;;;;;;;89.60;29.63;;;-4.20;99.90;;;;;;5101343;28;20043;-73
2022/12/12 07:44:25;;;;;;;90.32;26.83;;;-4.20;99.90;;;;;;5099418;28;20024;-73
2022/12/12 07:46:51;;;;;;;103.22;26.55;;;-4.30;99.90;;;;;;5100923;28;20101;-73
2022/12/12 07:49:17;;;;;;;81.13;26.40;;;-4.30;99.90;;;;;;5101564;28;20106;-73
2022/12/12 07:51:42;;;;;;;76.15;25.67;;;-4.30;99.90;;;;;;5102255;28;20051;-72
2022/12/12 07:54:08;;;;;;;64.95;24.80;;;-4.30;99.90;;;;;;5101580;28;20028;-73
2022/12/12 07:56:34;;;;;;;67.85;27.00;;;-4.30;99.90;;;;;;5100488;28;20095;-73
2022/12/12 07:58:59;;;;;;;76.75;25.83;;;-4.30;99.90;;;;;;5101889;28;20047;-73
2022/12/12 08:01:26;;;;;;;73.72;26.70;;;-4.20;99.90;;;;;;5101228;28;20046;-74
2022/12/12 08:03:53;;;;;;;81.80;27.50;;;-4.10;99.90;;;;;;5096623;28;20031;-73
2022/12/12 08:06:21;;;;;;;72.68;25.88;;;-4.10;99.90;;;;;;5100044;28;20046;-74
2022/12/12 08:08:48;;;;;;;74.47;26.65;;;-4.00;99.90;;;;;;5099122;28;20035;-73
2022/12/12 08:11:16;;;;;;;72.07;26.75;;;-3.80;99.90;;;;;;5101142;28;20020;-74
2022/12/12 08:13:42;;;;;;;76.00;28.05;;;-3.60;99.90;;;;;;5098569;28;20027;-73
2022/12/12 08:16:16;;;;;;;71.43;25.77;;;-3.30;99.90;;;;;;5101047;28;20389;-73
2022/12/12 08:18:42;;;;;;;71.35;26.13;;;-3.00;99.90;;;;;;5100582;28;20036;-74
2022/12/12 08:21:12;;;;;;;72.53;26.42;;;-2.80;99.90;;;;;;5100126;28;20032;-73
2022/12/12 08:23:38;;;;;;;59.22;23.98;;;-2.50;99.90;;;;;;5099107;28;20051;-73
2022/12/12 08:26:09;;;;;;;64.30;24.98;;;-2.20;99.90;;;;;;5098483;28;20551;-74
2022/12/12 08:28:35;;;;;;;69.18;26.98;;;-2.00;99.90;;;;;;5100572;28;20016;-73
2022/12/12 08:31:00;;;;;;;65.55;25.17;;;-1.90;99.90;;;;;;5102113;28;20436;-74
2022/12/12 08:33:27;;;;;;;62.45;25.58;;;-1.80;99.90;;;;;;5101705;28;20024;-73
2022/12/12 08:35:52;;;;;;;71.43;26.23;;;-1.80;99.90;;;;;;5102009;28;20070;-74
2022/12/12 08:38:18;;;;;;;73.93;28.15;;;-1.70;99.90;;;;;;5102065;28;20472;-74
2022/12/12 08:40:44;;;;;;;68.13;26.70;;;-1.70;99.90;;;;;;5099892;28;20099;-74
2022/12/12 08:43:10;;;;;;;72.53;27.52;;;-1.70;99.90;;;;;;5102054;28;20387;-73
2022/12/12 08:45:39;;;;;;;70.75;26.38;;;-1.70;99.90;;;;;;5100942;28;20059;-74
2022/12/12 08:48:06;;;;;;;70.25;26.13;;;-1.60;99.90;;;;;;5101368;28;21292;-74
2022/12/12 08:50:32;;;;;;;71.85;26.95;;;-1.50;99.90;;;;;;5101190;28;20383;-73
2022/12/12 08:52:58;;;;;;;73.05;26.75;;;-1.30;99.90;;;;;;5097635;28;20024;-74
2022/12/12 08:55:23;;;;;;;78.47;27.92;;;-1.20;99.90;;;;;;5099721;28;20070;-74
2022/12/12 08:57:49;;;;;;;69.30;26.30;;;-1.20;99.90;;;;;;5100248;28;20024;-75
2022/12/12 09:00:15;;;;;;;67.07;26.35;;;-1.30;99.90;;;;;;5100368;28;20092;-74
2022/12/12 09:02:42;;;;;;;71.95;26.35;;;-1.40;99.90;;;;;;5100893;28;20020;-73
2022/12/12 09:05:08;;;;;;;79.55;26.38;;;-1.50;99.90;;;;;;5100080;28;20020;-73
2022/12/12 09:07:35;;;;;;;78.78;27.60;;;-1.50;99.90;;;;;;5099599;28;20591;-74
2022/12/12 09:10:01;;;;;;;72.65;27.98;;;-1.60;99.90;;;;;;5100165;28;20517;-73
2022/12/12 09:12:26;;;;;;;73.43;27.80;;;-1.70;99.90;;;;;;5099425;28;20027;-73
2022/12/12 09:14:52;;;;;;;72.38;26.65;;;-1.70;99.90;;;;;;5098957;28;20040;-74
2022/12/12 09:17:17;;;;;;;65.85;27.02;;;-1.70;99.90;;;;;;5100295;28;20479;-74
2022/12/12 09:19:44;;;;;;;74.90;27.77;;;-1.60;99.90;;;;;;5101191;28;20043;-74
2022/12/12 09:22:10;;;;;;;82.50;29.27;;;-1.40;99.90;;;;;;5101811;28;20012;-74
2022/12/12 09:24:36;;;;;;;78.68;28.23;;;-1.30;99.90;;;;;;5098445;28;20543;-74
2022/12/12 09:27:02;;;;;;;67.80;26.33;;;-1.20;99.90;;;;;;5098934;28;20039;-73
2022/12/12 09:29:27;;;;;;;79.18;30.02;;;-1.10;99.90;;;;;;5098856;28;20100;-73
2022/12/12 09:31:53;;;;;;;70.72;29.38;;;-1.10;99.90;;;;;;5099534;28;20031;-74
2022/12/12 09:34:19;;;;;;;66.03;26.83;;;-0.90;99.90;;;;;;5094195;28;20135;-74
2022/12/12 09:36:45;;;;;;;73.82;29.58;;;-0.80;99.90;;;;;;5099373;28;20039;-74
2022/12/12 09:39:10;;;;;;;80.18;31.10;;;-0.50;99.90;;;;;;5099214;28;20016;-73
2022/12/12 09:41:36;;;;;;;84.82;31.50;;;-0.50;99.90;;;;;;5098100;28;20492;-74
2022/12/12 09:44:02;;;;;;;74.80;32.17;;;-0.40;99.90;;;;;;5099724;28;20028;-74
2022/12/12 09:47:03;;;;;;;79.00;30.63;;;-0.30;99.90;;;;;;5098639;28;20088;-73
2022/12/12 09:49:46;;;;;;;77.88;29.50;;;-0.30;99.90;;;;;;5098389;28;20047;-74
2022/12/12 09:52:21;;;;;;;71.55;29.48;;;-0.20;99.90;;;;;;5100476;28;20036;-73
2022/12/12 09:54:47;;;;;;;79.43;31.52;;;-0.10;99.90;;;;;;5098676;28;20040;-74
2022/12/12 09:57:15;;;;;;;89.15;31.50;;;0.00;99.90;;;;;;5099701;28;20036;-72
2022/12/12 09:59:54;;;;;;;77.97;29.80;;;0.10;99.90;;;;;;5099084;28;20569;-73
2022/12/12 10:02:45;;;;;;;79.97;30.77;;;0.20;99.90;;;;;;5098748;28;20035;-73
2022/12/12 10:05:31;;;;;;;72.75;26.88;;;0.20;99.90;;;;;;5099473;28;20049;-72
2022/12/12 10:08:02;;;;;;;68.55;28.92;;;0.30;99.90;;;;;;5099273;28;20044;-71
2022/12/12 10:10:38;;;;;;;74.18;28.55;;;0.30;99.90;;;;;;5098696;28;20040;-72
2022/12/12 10:13:14;;;;;;;68.82;26.25;;;0.30;99.90;;;;;;5099818;28;20035;-72
2022/12/12 10:15:50;;;;;;;67.95;25.23;;;0.30;99.90;;;;;;5099534;28;20016;-71
2022/12/12 10:18:21;;;;;;;74.55;28.25;;;0.30;99.90;;;;;;5095366;28;20077;-72
2022/12/12 10:20:50;;;;;;;68.35;27.13;;;0.30;99.90;;;;;;5098473;28;20020;-72
2022/12/12 10:23:23;;;;;;;84.38;29.10;;;0.30;99.90;;;;;;5097723;28;20059;-73
2022/12/12 10:26:13;;;;;;;71.43;29.17;;;0.40;99.90;;;;;;5094273;28;20044;-73
2022/12/12 10:28:39;;;;;;;67.43;28.30;;;0.50;99.90;;;;;;5094154;28;20042;-72
2022/12/12 10:31:23;;;;;;;69.32;27.88;;;0.80;99.90;;;;;;5093428;28;20107;-72
2022/12/12 10:34:01;;;;;;;78.25;28.58;;;0.90;99.90;;;;;;5098909;28;20399;-72
2022/12/12 10:37:04;;;;;;;67.78;27.05;;;1.20;99.90;;;;;;5100647;28;20073;-71
2022/12/12 10:39:51;;;;;;;68.65;26.73;;;1.30;99.90;;;;;;5101409;28;20016;-71
2022/12/12 10:42:36;;;;;;;73.68;27.67;;;1.40;99.90;;;;;;5100016;28;20044;-72
2022/12/12 10:45:25;;;;;;;62.65;26.80;;;1.60;99.90;;;;;;5101389;28;20059;-72
2022/12/12 10:47:51;;;;;;;64.95;26.10;;;1.70;99.90;;;;;;5095185;28;20039;-71
2022/12/12 10:50:26;;;;;;;70.80;31.02;;;1.80;99.90;;;;;;5098869;28;20020;-72
2022/12/12 10:52:51;;;;;;;66.35;27.08;;;1.90;99.90;;;;;;5094354;28;20142;-72
2022/12/12 10:55:28;;;;;;;62.47;25.63;;;2.00;99.90;;;;;;5099557;28;20032;-72
2022/12/12 10:58:02;;;;;;;78.70;26.83;;;2.10;99.90;;;;;;5099171;28;20050;-70
2022/12/12 11:00:34;;;;;;;65.63;24.85;;;2.20;99.90;;;;;;5097370;28;20084;-72
2022/12/12 11:03:21;;;;;;;61.25;25.45;;;2.30;99.90;;;;;;5102969;28;20089;-71
2022/12/12 11:05:47;;;;;;;67.00;26.33;;;2.40;99.90;;;;;;5100957;28;20040;-70
2022/12/12 11:08:33;;;;;;;57.70;25.13;;;2.50;99.90;;;;;;5097737;28;20096;-69
2022/12/12 11:11:18;;;;;;;65.60;25.48;;;2.50;99.90;;;;;;5098877;28;20103;-73
2022/12/12 11:13:53;;;;;;;62.67;24.25;;;2.70;99.90;;;;;;5100102;28;20122;-70
2022/12/12 11:16:26;;;;;;;59.40;24.67;;;2.80;99.90;;;;;;5097237;28;20097;-71
2022/12/12 11:19:05;;;;;;;67.55;25.88;;;2.90;99.90;;;;;;5100702;28;20024;-72
2022/12/12 11:21:33;;;;;;;53.35;23.13;;;2.90;99.90;;;;;;5100476;28;20049;-71
2022/12/12 11:24:02;;;;;;;62.95;25.85;;;3.00;99.90;;;;;;5098725;28;20048;-69
2022/12/12 11:26:28;;;;;;;62.72;24.23;;;3.00;99.90;;;;;;5100050;28;20395;-69
2022/12/12 11:29:01;;;;;;;71.18;25.38;;;3.10;99.90;;;;;;5101063;28;20039;-70
2022/12/12 11:31:31;;;;;;;71.15;27.00;;;3.20;99.90;;;;;;5101320;28;20091;-71
2022/12/12 11:34:00;;;;;;;56.45;23.80;;;3.30;99.90;;;;;;5101178;28;20031;-68
2022/12/12 11:36:40;;;;;;;61.78;24.27;;;3.40;99.90;;;;;;5100981;28;20471;-69
2022/12/12 11:39:18;;;;;;;53.78;23.50;;;3.50;99.90;;;;;;5101007;28;20034;-68
2022/12/12 11:41:56;;;;;;;55.40;23.67;;;3.60;99.90;;;;;;5101804;28;20039;-70
2022/12/12 11:44:26;;;;;;;55.20;23.77;;;3.60;99.90;;;;;;5101700;28;20070;-69
2022/12/12 11:46:51;;;;;;;52.80;22.73;;;3.70;99.90;;;;;;5100670;28;20127;-71
2022/12/12 11:49:19;;;;;;;46.15;20.02;;;3.80;99.90;;;;;;5101741;28;20460;-70
2022/12/12 11:51:45;;;;;;;56.50;22.00;;;3.80;99.90;;;;;;5100747;28;20024;-69
2022/12/12 11:54:13;;;;;;;49.08;21.48;;;4.00;99.90;;;;;;5101178;28;20067;-68
2022/12/12 11:56:56;;;;;;;45.70;21.70;;;4.00;99.90;;;;;;5100649;28;20020;-69
2022/12/12 11:59:29;;;;;;;55.20;21.67;;;4.10;99.90;;;;;;5100675;28;20032;-70
2022/12/12 12:02:26;;;;;;;53.63;21.17;;;4.30;99.90;;;;;;5101025;28;20067;-70
2022/12/12 12:05:11;;;;;;;55.08;22.65;;;4.50;99.90;;;;;;5100875;28;20083;-69
2022/12/12 12:07:55;;;;;;;60.17;22.05;;;4.70;99.90;;;;;;5100568;28;20082;-68
2022/12/12 12:10:59;;;;;;;60.95;22.75;;;4.90;99.90;;;;;;5099717;28;20024;-67
2022/12/12 12:14:03;;;;;;;56.20;22.20;;;5.40;99.90;;;;;;5099981;28;20116;-68
2022/12/12 12:16:50;;;;;;;52.15;23.35;;;5.70;99.90;;;;;;5091223;28;20040;-69
2022/12/12 12:19:51;;;;;;;60.83;21.40;;;5.80;99.90;;;;;;5098211;28;20086;-69
2022/12/12 12:22:59;;;;;;;50.15;21.30;;;5.90;99.90;;;;;;5101423;28;20039;-70
2022/12/12 12:25:24;;;;;;;53.45;21.00;;;5.90;99.90;;;;;;5100154;28;20147;-69
2022/12/12 12:27:59;;;;;;;52.90;22.83;;;5.90;99.90;;;;;;5102011;28;20485;-70
2022/12/12 12:30:43;;;;;;;54.78;21.65;;;5.80;99.90;;;;;;5098677;28;20020;-69
2022/12/12 12:33:12;;;;;;;;;;;5.70;99.90;;;;;;5099791;28;20035;-69
2022/12/12 12:35:40;;;;;;;62.08;24.60;;;5.80;99.90;;;;;;5099605;28;19904;-68
2022/12/12 12:38:25;;;;;;;65.93;25.88;;;5.80;99.90;;;;;;5099462;28;20065;-68
2022/12/12 12:41:12;;;;;;;56.50;23.05;;;5.70;99.90;;;;;;5099785;28;20038;-70
2022/12/12 12:44:13;;;;;;;69.25;26.17;;;5.60;99.90;;;;;;5098895;28;20525;-70
2022/12/12 12:46:44;;;;;;;71.63;27.67;;;5.50;99.90;;;;;;5099075;28;20036;-68
2022/12/12 12:49:17;;;;;;;63.03;23.98;;;5.20;99.90;;;;;;5100536;28;20020;-69
2022/12/12 12:51:57;;;;;;;59.55;22.25;;;4.90;99.90;;;;;;5101537;28;20019;-68
2022/12/12 12:54:38;;;;;;;63.42;21.98;;;4.70;99.90;;;;;;5099140;28;20111;-70
2022/12/12 12:57:30;;;;;;;55.13;22.20;;;4.40;99.90;;;;;;5101262;28;20016;-69
2022/12/12 13:00:05;;;;;;;54.65;21.25;;;4.10;99.90;;;;;;5102212;28;20016;-69
2022/12/12 13:02:44;;;;;;;54.83;21.15;;;3.90;99.90;;;;;;5101333;28;20024;-68
2022/12/12 13:05:36;;;;;;;53.03;21.10;;;3.70;99.90;;;;;;5101428;28;20074;-69
2022/12/12 13:08:05;;;;;;;60.42;21.05;;;3.50;99.90;;;;;;5101558;28;20103;-69